Terminal Aerodrome Forecast
Issued by NWS Sterling, VA

Home | Current Version | Previous Version | Text Only | Print | Product List | Glossary On
Versions: 1 2 3 4 5 6 7 8 9 10 11 12 13 14 15 16 17 18 19 20
081
FTUS41 KLWX 301730
TAFMRB
TAF
KMRB 301730Z 3018/3118 18007KT P6SM BKN035
      TEMPO 3018/3021 3SM -TSRA BKN030CB
     FM302300 14005KT P6SM SHRA VCTS BKN040CB
     FM310000 13005KT 5SM SHRA BR VCTS BKN040CB
     FM310300 00000KT 3SM BR VCTS BKN040CB
     FM310600 VRB03KT 3SM BR BKN120
     FM311200 00000KT P6SM BKN250=

USA.gov is the U.S. government's official web portal to all federal, state and local government web resources and services.